createdAt,value
2022-12-08T00:00:53.637Z,-5.83
2022-12-08T00:03:25.935Z,-5.67
2022-12-08T00:06:16.231Z,-5.81
2022-12-08T00:09:06.243Z,-5.79
2022-12-08T00:11:39.683Z,-5.78
2022-12-08T00:14:11.905Z,-5.83
2022-12-08T00:16:44.021Z,-5.82
2022-12-08T00:19:16.352Z,-5.86
2022-12-08T00:21:49.047Z,-5.82
2022-12-08T00:24:21.907Z,-5.83
2022-12-08T00:26:53.851Z,-5.78
2022-12-08T00:29:26.241Z,-5.69
2022-12-08T00:31:58.556Z,-5.80
2022-12-08T00:34:31.446Z,-5.81
2022-12-08T00:37:03.329Z,-5.81
2022-12-08T00:39:35.736Z,-5.82
2022-12-08T00:42:13.747Z,-5.82
2022-12-08T00:44:48.059Z,-5.87
2022-12-08T00:47:24.623Z,-5.83
2022-12-08T00:49:53.640Z,-5.77
2022-12-08T00:52:25.767Z,-5.80
2022-12-08T00:54:57.917Z,-5.77
2022-12-08T00:57:29.804Z,-5.80
2022-12-08T01:00:02.495Z,-5.77
2022-12-08T01:02:36.058Z,-5.82
2022-12-08T01:05:08.466Z,-5.80
2022-12-08T01:07:40.601Z,-5.72
2022-12-08T01:10:12.939Z,-5.68
2022-12-08T01:12:45.278Z,-5.77
2022-12-08T01:15:17.392Z,-5.81
2022-12-08T01:17:49.303Z,-5.84
2022-12-08T01:20:21.331Z,-5.75
2022-12-08T01:22:53.280Z,-5.85
2022-12-08T01:25:25.434Z,-5.85
2022-12-08T01:27:57.974Z,-5.82
2022-12-08T01:30:30.204Z,-5.84
2022-12-08T01:33:02.723Z,-5.81
2022-12-08T01:35:36.117Z,-5.90
2022-12-08T01:38:08.305Z,-5.89
2022-12-08T01:40:40.270Z,-5.87
2022-12-08T01:43:20.458Z,-5.87
2022-12-08T01:45:52.529Z,-5.88
2022-12-08T01:48:27.567Z,-5.87
2022-12-08T01:51:00.123Z,-5.87
2022-12-08T01:53:33.933Z,-5.82
2022-12-08T01:56:12.549Z,-5.85
2022-12-08T01:58:47.523Z,-5.72
2022-12-08T02:01:19.553Z,-5.87
2022-12-08T02:04:03.058Z,-5.84
2022-12-08T02:06:37.979Z,-5.86
2022-12-08T02:09:10.219Z,-5.79
2022-12-08T02:11:42.563Z,-5.84
2022-12-08T02:14:15.724Z,-5.79
2022-12-08T02:16:50.690Z,-5.83
2022-12-08T02:19:44.648Z,-5.87
2022-12-08T02:22:22.668Z,-5.84
2022-12-08T02:25:00.318Z,-5.82
2022-12-08T02:28:08.925Z,-5.82
2022-12-08T02:31:07.710Z,-5.84
2022-12-08T02:33:48.869Z,-5.83
2022-12-08T02:36:51.947Z,-5.84
2022-12-08T02:39:38.854Z,-5.86
2022-12-08T02:42:13.966Z,-5.80
2022-12-08T02:44:48.863Z,-5.81
2022-12-08T02:47:23.826Z,-5.76
2022-12-08T02:49:57.670Z,-5.77
2022-12-08T02:52:32.743Z,-5.80
2022-12-08T02:55:10.243Z,-5.84
2022-12-08T02:57:54.531Z,-5.89
2022-12-08T03:00:29.391Z,-5.92
2022-12-08T03:03:13.071Z,-5.87
2022-12-08T03:06:13.435Z,-5.87
2022-12-08T03:08:54.169Z,-5.85
2022-12-08T03:11:47.440Z,-5.83
2022-12-08T03:14:21.008Z,-5.87
2022-12-08T03:16:56.041Z,-5.87
2022-12-08T03:19:33.666Z,-5.87
2022-12-08T03:22:07.728Z,-5.86
2022-12-08T03:24:42.060Z,-5.84
2022-12-08T03:27:23.025Z,-5.83
2022-12-08T03:29:56.789Z,-5.81
2022-12-08T03:32:29.501Z,-5.83
2022-12-08T03:35:04.124Z,-5.66
2022-12-08T03:37:39.169Z,-5.80
2022-12-08T03:40:15.132Z,-5.80
2022-12-08T03:42:47.283Z,-5.81
2022-12-08T03:45:19.234Z,-5.72
2022-12-08T03:47:51.437Z,-5.80
2022-12-08T03:50:24.380Z,-5.85
2022-12-08T03:52:56.505Z,-5.86
2022-12-08T03:55:28.857Z,-5.88
2022-12-08T03:58:01.289Z,-5.75
2022-12-08T04:00:34.599Z,-5.84
2022-12-08T04:03:07.084Z,-5.90
2022-12-08T04:05:39.348Z,-5.85
2022-12-08T04:08:11.785Z,-5.85
2022-12-08T04:10:44.412Z,-5.87
2022-12-08T04:13:17.080Z,-5.92
2022-12-08T04:15:49.942Z,-5.88
2022-12-08T04:18:23.149Z,-5.89
2022-12-08T04:20:55.347Z,-5.94
2022-12-08T04:23:27.403Z,-5.93
2022-12-08T04:25:59.478Z,-5.92
2022-12-08T04:28:32.929Z,-5.94
2022-12-08T04:31:05.530Z,-5.96
2022-12-08T04:33:37.993Z,-5.98
2022-12-08T04:36:11.135Z,-5.91
2022-12-08T04:38:44.031Z,-5.93
2022-12-08T04:41:16.336Z,-5.90
2022-12-08T04:43:49.023Z,-5.92
2022-12-08T04:46:22.657Z,-5.92
2022-12-08T04:48:54.920Z,-5.94
2022-12-08T04:51:27.635Z,-5.89
2022-12-08T04:53:59.924Z,-5.91
2022-12-08T04:56:32.688Z,-5.90
2022-12-08T04:59:08.376Z,-5.89
2022-12-08T05:01:41.150Z,-5.85
2022-12-08T05:04:13.987Z,-5.85
2022-12-08T05:06:47.709Z,-5.73
2022-12-08T05:09:20.554Z,-5.77
2022-12-08T05:11:53.876Z,-5.73
2022-12-08T05:14:27.432Z,-5.79
2022-12-08T05:17:02.567Z,-5.79
2022-12-08T05:19:34.888Z,-5.77
2022-12-08T05:22:08.068Z,-5.72
2022-12-08T05:24:47.177Z,-5.69
2022-12-08T05:27:16.631Z,-5.74
2022-12-08T05:29:50.320Z,-5.76
2022-12-08T05:32:24.036Z,-5.75
2022-12-08T05:34:57.207Z,-5.70
2022-12-08T05:37:30.705Z,-5.72
2022-12-08T05:40:05.704Z,-5.72
2022-12-08T05:42:40.580Z,-5.79
2022-12-08T05:45:13.738Z,-5.78
2022-12-08T05:47:46.135Z,-5.80
2022-12-08T05:50:19.747Z,-5.73
2022-12-08T05:52:52.842Z,-5.76
2022-12-08T05:55:25.320Z,-5.77
2022-12-08T05:57:57.695Z,-5.72
2022-12-08T06:00:30.370Z,-5.71
2022-12-08T06:03:04.425Z,-5.65
2022-12-08T06:05:38.783Z,-5.47
2022-12-08T06:08:12.704Z,-5.34
2022-12-08T06:10:46.733Z,-5.20
2022-12-08T06:13:20.402Z,-5.02
2022-12-08T06:15:53.183Z,-4.90
2022-12-08T06:18:32.473Z,-4.86
2022-12-08T06:21:06.890Z,-5.10
2022-12-08T06:23:40.359Z,-5.20
2022-12-08T06:26:15.291Z,-5.23
2022-12-08T06:28:47.815Z,-5.16
2022-12-08T06:31:23.971Z,-5.23
2022-12-08T06:33:57.877Z,-5.26
2022-12-08T06:36:29.761Z,-5.22
2022-12-08T06:39:02.567Z,-5.01
2022-12-08T06:41:39.084Z,-4.95
2022-12-08T06:44:11.701Z,-5.00
2022-12-08T06:46:46.110Z,-5.04
2022-12-08T06:49:18.425Z,-5.08
2022-12-08T06:51:51.773Z,-5.04
2022-12-08T06:54:25.444Z,-4.98
2022-12-08T06:56:57.759Z,-4.86
2022-12-08T06:59:30.913Z,-4.79
2022-12-08T07:02:03.741Z,-4.68
2022-12-08T07:04:36.260Z,-4.66
2022-12-08T07:07:09.432Z,-4.73
2022-12-08T07:09:41.555Z,-4.80
2022-12-08T07:12:14.262Z,-4.91
2022-12-08T07:14:47.152Z,-5.01
2022-12-08T07:17:19.690Z,-5.06
2022-12-08T07:19:51.706Z,-4.96
2022-12-08T07:22:24.304Z,-4.80
2022-12-08T07:24:57.558Z,-4.62
2022-12-08T07:27:30.679Z,-4.56
2022-12-08T07:30:03.358Z,-4.62
2022-12-08T07:32:36.144Z,-4.69
2022-12-08T07:35:09.916Z,-4.82
2022-12-08T07:37:43.110Z,-4.87
2022-12-08T07:40:16.237Z,-4.88
2022-12-08T07:42:48.916Z,-4.96
2022-12-08T07:45:25.663Z,-4.96
2022-12-08T07:47:56.147Z,-5.05
2022-12-08T07:50:30.268Z,-5.05
2022-12-08T07:53:02.568Z,-5.02
2022-12-08T07:55:35.723Z,-5.00
2022-12-08T07:58:09.709Z,-5.01
2022-12-08T08:00:42.570Z,-4.94
2022-12-08T08:03:14.777Z,-4.81
2022-12-08T08:05:49.347Z,-4.65
2022-12-08T08:08:21.917Z,-4.46
2022-12-08T08:10:54.685Z,-4.19
2022-12-08T08:13:28.341Z,-3.98
2022-12-08T08:16:09.163Z,-3.87
2022-12-08T08:18:42.153Z,-3.73
2022-12-08T08:21:43.668Z,-3.65
2022-12-08T08:23:50.054Z,-3.68
2022-12-08T08:26:22.625Z,-3.72
2022-12-08T08:28:54.725Z,-3.78
2022-12-08T08:31:28.994Z,-3.92
2022-12-08T08:34:04.557Z,-4.04
2022-12-08T08:36:37.787Z,-4.16
2022-12-08T08:39:10.389Z,-4.22
2022-12-08T08:41:43.770Z,-4.24
2022-12-08T08:44:16.923Z,-3.96
2022-12-08T08:46:49.927Z,-3.61
2022-12-08T08:49:22.663Z,-3.43
2022-12-08T08:51:54.984Z,-3.36
2022-12-08T08:54:28.896Z,-3.32
2022-12-08T08:57:03.600Z,-3.38
2022-12-08T08:59:35.569Z,-3.36
2022-12-08T09:02:08.609Z,-3.31
2022-12-08T09:04:41.652Z,-3.33
2022-12-08T09:07:14.325Z,-3.43
2022-12-08T09:09:46.985Z,-3.57
2022-12-08T09:12:20.130Z,-3.71
2022-12-08T09:14:54.953Z,-3.78
2022-12-08T09:17:27.424Z,-3.81
2022-12-08T09:20:02.032Z,-3.80
2022-12-08T09:22:34.648Z,-3.85
2022-12-08T09:25:08.044Z,-3.87
2022-12-08T09:27:41.077Z,-3.96
2022-12-08T09:30:13.921Z,-4.03
2022-12-08T09:32:46.682Z,-4.10
2022-12-08T09:35:19.671Z,-4.19
2022-12-08T09:37:52.486Z,-4.23
2022-12-08T09:40:27.304Z,-4.09
2022-12-08T09:43:26.581Z,-3.84
2022-12-08T09:45:59.929Z,-3.69
2022-12-08T09:48:35.309Z,-3.46
2022-12-08T09:51:10.227Z,-3.28
2022-12-08T09:53:48.375Z,-3.17
2022-12-08T09:56:36.395Z,-2.99
2022-12-08T09:59:11.728Z,-3.02
2022-12-08T10:01:44.443Z,-3.18
2022-12-08T10:04:19.369Z,-3.39
2022-12-08T10:07:09.191Z,-3.59
2022-12-08T10:09:56.504Z,-3.74
2022-12-08T10:12:49.632Z,-3.79
2022-12-08T10:15:47.744Z,-3.86
2022-12-08T10:18:26.175Z,-4.01
2022-12-08T10:21:01.330Z,-4.13
2022-12-08T10:23:39.757Z,-4.17
2022-12-08T10:26:17.970Z,-4.26
2022-12-08T10:28:51.571Z,-4.28
2022-12-08T10:31:26.787Z,-4.32
2022-12-08T10:34:04.531Z,-4.30
2022-12-08T10:36:51.874Z,-4.26
2022-12-08T10:39:37.549Z,-4.28
2022-12-08T10:42:12.906Z,-4.27
2022-12-08T10:45:05.971Z,-4.29
2022-12-08T10:47:45.508Z,-4.29
2022-12-08T10:50:33.272Z,-4.24
2022-12-08T10:53:14.551Z,-4.24
2022-12-08T10:55:49.739Z,-4.17
2022-12-08T10:58:42.228Z,-4.15
2022-12-08T11:01:20.053Z,-4.13
2022-12-08T11:03:55.031Z,-4.08
2022-12-08T11:06:35.817Z,-4.06
2022-12-08T11:09:22.432Z,-4.07
2022-12-08T11:12:16.800Z,-4.03
2022-12-08T11:15:02.219Z,-3.99
2022-12-08T11:17:44.025Z,-3.97
2022-12-08T11:20:21.709Z,-3.93
2022-12-08T11:22:56.717Z,-3.92
2022-12-08T11:25:30.174Z,-3.93
2022-12-08T11:28:03.875Z,-3.86
2022-12-08T11:30:43.006Z,-3.88
2022-12-08T11:33:26.475Z,-3.89
2022-12-08T11:36:10.495Z,-3.90
2022-12-08T11:38:46.949Z,-3.90
2022-12-08T11:41:22.382Z,-3.92
2022-12-08T11:44:06.969Z,-3.93
2022-12-08T11:46:54.027Z,-3.91
2022-12-08T11:49:29.298Z,-3.94
2022-12-08T11:52:12.987Z,-3.93
2022-12-08T11:54:48.812Z,-3.82
2022-12-08T11:57:24.376Z,-3.92
2022-12-08T11:59:59.688Z,-3.97
2022-12-08T12:02:35.328Z,-4.00
2022-12-08T12:05:47.646Z,-4.01
2022-12-08T12:08:30.100Z,-4.00
2022-12-08T12:11:46.848Z,-3.95
2022-12-08T12:14:44.960Z,-3.94
2022-12-08T12:17:51.788Z,-3.98
2022-12-08T12:20:33.666Z,-3.97
2022-12-08T12:23:12.855Z,-4.00
2022-12-08T12:26:00.731Z,-3.99
2022-12-08T12:28:44.283Z,-4.02
2022-12-08T12:31:20.029Z,-4.05
2022-12-08T12:33:54.672Z,-4.07
2022-12-08T12:36:27.414Z,-4.01
2022-12-08T12:39:03.764Z,-4.04
2022-12-08T12:41:51.109Z,-4.05
2022-12-08T12:44:32.944Z,-4.06
2022-12-08T12:47:08.977Z,-4.04
2022-12-08T12:49:46.003Z,-4.01
2022-12-08T12:52:22.669Z,-4.07
2022-12-08T12:55:00.523Z,-4.03
2022-12-08T12:57:54.110Z,-4.05
2022-12-08T13:00:28.589Z,-4.05
2022-12-08T13:03:01.311Z,-4.05
2022-12-08T13:05:36.938Z,-4.03
2022-12-08T13:08:12.547Z,-4.04
2022-12-08T13:10:50.563Z,-4.03
2022-12-08T13:13:24.647Z,-4.04
2022-12-08T13:16:12.728Z,-4.05
2022-12-08T13:18:53.778Z,-4.07
2022-12-08T13:21:28.902Z,-4.07
2022-12-08T13:24:18.168Z,-4.01
2022-12-08T13:27:08.789Z,-4.03
2022-12-08T13:29:41.620Z,-4.02
2022-12-08T13:32:16.760Z,-4.00
2022-12-08T13:34:54.999Z,-3.98
2022-12-08T13:37:29.260Z,-3.96
2022-12-08T13:40:04.999Z,-3.95
2022-12-08T13:42:52.440Z,-3.94
2022-12-08T13:46:12.141Z,-3.91
2022-12-08T13:49:03.303Z,-3.89
2022-12-08T13:57:08.486Z,-3.84
2022-12-08T13:59:31.087Z,-3.83
2022-12-08T14:02:17.756Z,-3.82
2022-12-08T14:07:24.696Z,-3.69
2022-12-08T14:09:57.181Z,-3.80
2022-12-08T14:12:32.283Z,-3.80
2022-12-08T14:15:07.384Z,-3.77
2022-12-08T14:17:41.075Z,-3.77
2022-12-08T14:20:22.278Z,-3.77
2022-12-08T14:22:56.290Z,-3.77
2022-12-08T14:25:32.037Z,-3.77
2022-12-08T14:28:06.484Z,-3.69
2022-12-08T14:30:40.591Z,-3.70
2022-12-08T14:33:18.758Z,-3.69
2022-12-08T14:35:55.025Z,-3.63
2022-12-08T14:38:28.535Z,-3.57
2022-12-08T14:41:10.310Z,-3.58
2022-12-08T14:43:43.246Z,-3.55
2022-12-08T14:46:25.515Z,-3.59
2022-12-08T14:48:59.829Z,-3.61
2022-12-08T14:51:34.287Z,-3.59
2022-12-08T14:54:15.545Z,-3.56
2022-12-08T14:56:53.172Z,-3.60
2022-12-08T14:59:33.722Z,-3.56
2022-12-08T15:02:22.116Z,-3.57
2022-12-08T15:05:06.528Z,-3.58
2022-12-08T15:07:45.639Z,-3.53
2022-12-08T15:10:21.882Z,-3.54
2022-12-08T15:13:07.583Z,-3.54
2022-12-08T15:15:58.031Z,-3.50
2022-12-08T15:18:42.723Z,-3.55
2022-12-08T15:21:15.189Z,-3.55
2022-12-08T15:23:52.236Z,-3.53
2022-12-08T15:26:27.648Z,-3.49
2022-12-08T15:29:02.068Z,-3.49
2022-12-08T15:31:35.014Z,-3.45
2022-12-08T15:34:08.514Z,-3.47
2022-12-08T15:36:42.761Z,-3.47
2022-12-08T15:39:35.092Z,-3.43
2022-12-08T15:42:10.438Z,-3.40
2022-12-08T15:44:43.715Z,-3.39
2022-12-08T15:47:24.615Z,-3.35
2022-12-08T15:49:57.102Z,-3.33
2022-12-08T15:52:29.384Z,-3.30
2022-12-08T15:55:02.885Z,-3.34
2022-12-08T15:58:30.919Z,-3.34
2022-12-08T16:00:30.611Z,-3.32
2022-12-08T16:03:18.392Z,-3.30
2022-12-08T16:05:44.208Z,-3.29
2022-12-08T16:08:04.575Z,-3.26
2022-12-08T16:11:00.710Z,-3.25
2022-12-08T16:13:56.118Z,-3.24
2022-12-08T16:16:01.340Z,-3.09
2022-12-08T16:18:38.494Z,-3.18
2022-12-08T16:21:31.634Z,-3.18
2022-12-08T16:23:47.753Z,-3.17
2022-12-08T16:28:57.571Z,-3.15
2022-12-08T16:31:30.684Z,-3.08
2022-12-08T16:34:02.972Z,-3.09
2022-12-08T16:36:36.145Z,-3.09
2022-12-08T16:39:09.346Z,-3.04
2022-12-08T16:41:59.231Z,-3.03
2022-12-08T16:44:31.324Z,-3.02
2022-12-08T16:47:06.401Z,-3.02
2022-12-08T16:49:39.880Z,-3.01
2022-12-08T16:52:12.640Z,-2.99
2022-12-08T16:54:45.917Z,-2.95
2022-12-08T16:57:18.246Z,-2.95
2022-12-08T16:59:50.458Z,-2.94
2022-12-08T17:02:23.266Z,-2.91
2022-12-08T17:04:55.514Z,-2.89
2022-12-08T17:07:28.076Z,-2.87
2022-12-08T17:10:00.683Z,-2.88
2022-12-08T17:12:35.444Z,-2.88
2022-12-08T17:15:08.069Z,-2.86
2022-12-08T17:17:40.179Z,-2.73
2022-12-08T17:20:15.121Z,-2.83
2022-12-08T17:22:47.737Z,-2.85
2022-12-08T17:25:19.647Z,-2.86
2022-12-08T17:27:51.910Z,-2.85
2022-12-08T17:30:24.366Z,-2.82
2022-12-08T17:32:58.800Z,-2.79
2022-12-08T17:35:31.969Z,-2.77
2022-12-08T17:38:04.158Z,-2.76
2022-12-08T17:40:36.168Z,-2.75
2022-12-08T17:43:08.841Z,-2.73
2022-12-08T17:45:49.368Z,-2.72
2022-12-08T17:48:21.441Z,-2.73
2022-12-08T17:50:54.482Z,-2.71
2022-12-08T17:53:26.659Z,-2.72
2022-12-08T17:56:00.206Z,-2.70
2022-12-08T17:58:32.987Z,-2.71
2022-12-08T18:01:10.780Z,-2.70
2022-12-08T18:03:43.084Z,-2.68
2022-12-08T18:06:15.236Z,-2.66
2022-12-08T18:08:47.401Z,-2.66
2022-12-08T18:11:21.120Z,-2.68
2022-12-08T18:13:52.905Z,-2.68
2022-12-08T18:16:26.222Z,-2.49
2022-12-08T18:18:58.570Z,-2.63
2022-12-08T18:21:30.920Z,-2.63
2022-12-08T18:24:03.533Z,-2.63
2022-12-08T18:26:36.106Z,-2.64
2022-12-08T18:29:08.394Z,-2.62
2022-12-08T18:31:40.857Z,-2.61
2022-12-08T18:34:12.864Z,-2.60
2022-12-08T18:36:44.940Z,-2.59
2022-12-08T18:39:29.047Z,-2.52
2022-12-08T18:42:04.964Z,-2.50
2022-12-08T18:44:38.015Z,-2.47
2022-12-08T18:47:10.303Z,-2.48
2022-12-08T18:49:42.811Z,-2.50
2022-12-08T18:52:17.824Z,-2.52
2022-12-08T18:55:05.815Z,-2.52
2022-12-08T18:57:22.751Z,-2.50
2022-12-08T18:59:55.303Z,-2.52
2022-12-08T19:02:29.470Z,-2.50
2022-12-08T19:05:01.805Z,-2.51
2022-12-08T19:07:34.981Z,-2.53
2022-12-08T19:10:08.161Z,-2.51
2022-12-08T19:12:40.745Z,-2.48
2022-12-08T19:15:13.598Z,-2.46
2022-12-08T19:17:45.584Z,-2.46
2022-12-08T19:20:17.781Z,-2.42
2022-12-08T19:22:50.136Z,-2.41
2022-12-08T19:25:22.736Z,-2.39
2022-12-08T19:27:55.249Z,-2.37
2022-12-08T19:30:27.247Z,-2.36
2022-12-08T19:32:59.869Z,-2.33
2022-12-08T19:35:31.828Z,-2.34
2022-12-08T19:38:04.235Z,-2.33
2022-12-08T19:40:54.098Z,-2.36
2022-12-08T19:43:33.614Z,-2.38
2022-12-08T19:46:06.022Z,-2.37
2022-12-08T19:48:37.966Z,-2.40
2022-12-08T19:51:10.726Z,-2.43
2022-12-08T19:53:47.301Z,-2.43
2022-12-08T19:56:16.856Z,-2.43
2022-12-08T19:58:48.871Z,-2.46
2022-12-08T20:01:21.055Z,-2.46
2022-12-08T20:03:53.147Z,-2.47
2022-12-08T20:06:26.368Z,-2.47
2022-12-08T20:08:58.639Z,-2.49
2022-12-08T20:11:30.916Z,-2.48
2022-12-08T20:14:03.079Z,-2.48
2022-12-08T20:16:35.296Z,-2.48
2022-12-08T20:19:07.353Z,-2.46
2022-12-08T20:21:41.588Z,-2.46
2022-12-08T20:24:14.006Z,-2.47
2022-12-08T20:26:46.490Z,-2.45
2022-12-08T20:29:18.879Z,-2.44
2022-12-08T20:31:51.192Z,-2.42
2022-12-08T20:34:23.284Z,-2.41
2022-12-08T20:36:56.457Z,-2.38
2022-12-08T20:39:28.962Z,-2.38
2022-12-08T20:42:01.062Z,-2.34
2022-12-08T20:44:33.472Z,-2.35
2022-12-08T20:47:05.395Z,-2.33
2022-12-08T20:49:37.563Z,-2.31
2022-12-08T20:52:10.089Z,-2.29
2022-12-08T20:54:42.224Z,-2.29
2022-12-08T20:57:14.225Z,-2.29
2022-12-08T20:59:46.638Z,-2.27
2022-12-08T21:02:18.964Z,-2.23
2022-12-08T21:04:51.619Z,-2.24
2022-12-08T21:07:23.857Z,-2.24
2022-12-08T21:09:56.035Z,-2.25
2022-12-08T21:12:28.134Z,-2.26
2022-12-08T21:15:00.367Z,-2.24
2022-12-08T21:17:33.026Z,-2.26
2022-12-08T21:20:06.656Z,-2.22
2022-12-08T21:22:40.588Z,-2.24
2022-12-08T21:25:12.924Z,-2.22
2022-12-08T21:27:45.132Z,-2.22
2022-12-08T21:30:17.210Z,-2.19
2022-12-08T21:32:49.637Z,-2.18
2022-12-08T21:35:22.510Z,-2.18
2022-12-08T21:37:54.949Z,-2.19
2022-12-08T21:40:27.728Z,-2.16
2022-12-08T21:42:59.943Z,-2.16
2022-12-08T21:45:35.811Z,-2.16
2022-12-08T21:48:11.678Z,-2.15
2022-12-08T21:50:42.968Z,-2.14
2022-12-08T21:53:15.044Z,-2.11
2022-12-08T21:55:47.416Z,-2.11
2022-12-08T21:58:19.838Z,-2.10
2022-12-08T22:00:52.420Z,-2.09
2022-12-08T22:03:25.233Z,-2.10
2022-12-08T22:05:57.618Z,-2.11
2022-12-08T22:08:30.207Z,-2.12
2022-12-08T22:11:02.816Z,-2.12
2022-12-08T22:13:37.020Z,-2.13
2022-12-08T22:16:12.071Z,-2.14
2022-12-08T22:18:44.292Z,-2.13
2022-12-08T22:21:18.802Z,-2.12
2022-12-08T22:23:51.618Z,-2.15
2022-12-08T22:26:23.809Z,-2.13
2022-12-08T22:28:55.974Z,-2.12
2022-12-08T22:31:28.490Z,-2.12
2022-12-08T22:34:00.986Z,-2.11
2022-12-08T22:36:33.264Z,-2.09
2022-12-08T22:39:05.935Z,-2.09
2022-12-08T22:41:38.237Z,-2.08
2022-12-08T22:44:10.694Z,-2.06
2022-12-08T22:46:42.938Z,-2.05
2022-12-08T22:49:14.996Z,-2.01
2022-12-08T22:51:47.325Z,-2.02
2022-12-08T22:54:19.615Z,-2.02
2022-12-08T22:56:51.949Z,-2.01
2022-12-08T22:59:23.975Z,-2.00
2022-12-08T23:01:56.104Z,-2.00
2022-12-08T23:04:28.354Z,-1.99
2022-12-08T23:07:00.582Z,-1.97
2022-12-08T23:09:32.695Z,-1.96
2022-12-08T23:12:04.887Z,-1.94
2022-12-08T23:14:37.308Z,-1.93
2022-12-08T23:17:09.393Z,-1.92
2022-12-08T23:19:41.586Z,-1.90
2022-12-08T23:22:13.958Z,-1.88
2022-12-08T23:24:46.024Z,-1.87
2022-12-08T23:27:18.260Z,-1.85
2022-12-08T23:29:50.423Z,-1.83
2022-12-08T23:32:22.471Z,-1.81
2022-12-08T23:34:54.707Z,-1.80
2022-12-08T23:37:27.456Z,-1.79
2022-12-08T23:39:59.910Z,-1.77
2022-12-08T23:42:33.184Z,-1.75
2022-12-08T23:45:07.739Z,-1.70
2022-12-08T23:47:39.947Z,-1.72
2022-12-08T23:50:12.945Z,-1.71
2022-12-08T23:52:45.549Z,-1.73
2022-12-08T23:55:18.384Z,-1.74
2022-12-08T23:57:50.638Z,-1.75
